Lucien, Mississippi
Current Conditions -  °F | °C
As of 12:35 PM on Thursday 27 Nov 2014 (Local Time) from K1R7 Reporting Station
Clear Clear  
Wind Chill: 52°   Ceiling: Unl
Heat Index: 52°   Visibility: 10mi
Dew Point: 32°   Wind: 9mph
Humidity: 47%   Direction: 310°NW
Pressure: 30.45"   Gusts: 16mph
Location:  31.5898°N, 90.4722°W
Report Text: K1R7 271835Z AUTO 31008G14KT 10SM CLR 11/00 A3045 RMK AO2
Loading
Personal Weather Stations






























Interactive Weather Map New forecast layout! Learn more

10-Day Weather Forecast

Advertisements
Track Severe Weather on mobile